Time;durP1;ratioP1;P1;durP2;ratioP2;P2;SDS_P1;SDS_P2;PMS_P1;PMS_P2;Temp;Humidity;BMP_temperature;BMP_pressure;BME280_temperature;BME280_humidity;BME280_pressure;Samples;Min_cycle;Max_cycle;Signal;HPM_P1;HPM_P2
2022/03/08 00:01:12;;;;;;;23.98;12.43;;;;;;;;;;5049819;27;97067;-75
2022/03/08 00:03:39;;;;;;;21.40;12.27;;;;;;;;;;5050550;27;95624;-75
2022/03/08 00:06:05;;;;;;;24.17;12.18;;;;;;;;;;5050472;27;96844;-75
2022/03/08 00:08:31;;;;;;;20.83;12.15;;;;;;;;;;5052226;27;97374;-75
2022/03/08 00:10:59;;;;;;;20.45;11.32;;;;;;;;;;5050062;27;95927;-75
2022/03/08 00:13:25;;;;;;;20.38;12.10;;;;;;;;;;5050253;27;97136;-74
2022/03/08 00:15:51;;;;;;;22.60;12.75;;;;;;;;;;5050302;27;95287;-75
2022/03/08 00:18:18;;;;;;;20.90;13.07;;;;;;;;;;5050379;27;97046;-75
2022/03/08 00:20:44;;;;;;;22.65;12.55;;;;;;;;;;5050654;27;97382;-74
2022/03/08 00:23:11;;;;;;;20.13;11.85;;;;;;;;;;5049310;27;95417;-74
2022/03/08 00:25:37;;;;;;;21.98;12.07;;;;;;;;;;5049826;27;96910;-75
2022/03/08 00:28:04;;;;;;;22.85;12.48;;;;;;;;;;5052728;27;97391;-75
2022/03/08 00:30:30;;;;;;;19.65;12.38;;;;;;;;;;5050243;27;96816;-75
2022/03/08 00:32:57;;;;;;;22.38;12.80;;;;;;;;;;5049803;27;97243;-75
2022/03/08 00:35:24;;;;;;;19.90;11.55;;;;;;;;;;5050357;27;95399;-75
2022/03/08 00:37:51;;;;;;;21.23;12.30;;;;;;;;;;5049369;27;96789;-75
2022/03/08 00:40:18;;;;;;;23.92;12.20;;;;;;;;;;5049278;27;97401;-75
2022/03/08 00:42:45;;;;;;;21.67;11.88;;;;;;;;;;5049666;27;95296;-74
2022/03/08 00:45:12;;;;;;;21.40;12.15;;;;;;;;;;5050000;27;97120;-74
2022/03/08 00:47:39;;;;;;;20.42;11.50;;;;;;;;;;5049929;27;97972;-74
2022/03/08 00:50:06;;;;;;;21.45;11.48;;;;;;;;;;5052729;27;95636;-74
2022/03/08 00:52:33;;;;;;;20.58;11.45;;;;;;;;;;5049230;27;97113;-74
2022/03/08 00:54:59;;;;;;;21.42;11.65;;;;;;;;;;5049761;27;95561;-74
2022/03/08 00:57:25;;;;;;;25.15;12.27;;;;;;;;;;5049627;27;96610;-74
2022/03/08 00:59:52;;;;;;;22.88;11.18;;;;;;;;;;5049293;27;97594;-74
2022/03/08 01:02:18;;;;;;;23.65;12.85;;;;;;;;;;5049440;27;95445;-74
2022/03/08 01:04:45;;;;;;;19.88;12.25;;;;;;;;;;5048928;27;95258;-74
2022/03/08 01:07:11;;;;;;;24.77;12.65;;;;;;;;;;5048883;27;97359;-74
2022/03/08 01:09:37;;;;;;;23.55;11.45;;;;;;;;;;5048781;27;95420;-74
2022/03/08 01:12:04;;;;;;;19.73;11.85;;;;;;;;;;5051927;27;96947;-75
2022/03/08 01:14:30;;;;;;;24.25;12.25;;;;;;;;;;5049736;27;95459;-74
2022/03/08 01:16:57;;;;;;;22.65;12.02;;;;;;;;;;5049717;27;96782;-75
2022/03/08 01:19:23;;;;;;;20.70;12.52;;;;;;;;;;5048757;27;97276;-74
2022/03/08 01:21:50;;;;;;;31.00;11.80;;;;;;;;;;5049268;27;96787;-75
2022/03/08 01:24:16;;;;;;;22.30;12.27;;;;;;;;;;5048982;27;96973;-74
2022/03/08 01:26:42;;;;;;;24.42;12.15;;;;;;;;;;5049159;27;97169;-75
2022/03/08 01:29:08;;;;;;;33.60;12.57;;;;;;;;;;5048716;27;96006;-75
2022/03/08 01:31:35;;;;;;;22.08;12.00;;;;;;;;;;5031207;27;96927;-75
2022/03/08 01:34:02;;;;;;;21.85;12.18;;;;;;;;;;5051621;27;97453;-75
2022/03/08 01:36:29;;;;;;;23.55;12.40;;;;;;;;;;5049439;27;96723;-75
2022/03/08 01:38:55;;;;;;;21.55;12.48;;;;;;;;;;5048581;27;97937;-74
2022/03/08 01:41:21;;;;;;;21.52;11.40;;;;;;;;;;5048688;27;95385;-74
2022/03/08 01:43:48;;;;;;;22.63;12.65;;;;;;;;;;5048512;27;95797;-75
2022/03/08 01:46:15;;;;;;;21.58;12.00;;;;;;;;;;5048384;27;97295;-74
2022/03/08 01:48:42;;;;;;;22.58;12.10;;;;;;;;;;5048945;27;95470;-74
2022/03/08 01:51:08;;;;;;;22.13;12.40;;;;;;;;;;5048454;27;97074;-75
2022/03/08 01:53:37;;;;;;;24.83;12.60;;;;;;;;;;5047834;27;97557;-75
2022/03/08 01:56:04;;;;;;;23.25;12.50;;;;;;;;;;5052183;27;95731;-75
2022/03/08 01:58:31;;;;;;;22.02;12.48;;;;;;;;;;5048397;27;97329;-75
2022/03/08 02:00:57;;;;;;;20.45;11.48;;;;;;;;;;5048271;27;95386;-74
2022/03/08 02:03:24;;;;;;;21.52;12.25;;;;;;;;;;5048759;27;97399;-75
2022/03/08 02:05:50;;;;;;;25.67;12.32;;;;;;;;;;5048744;27;97430;-75
2022/03/08 02:08:17;;;;;;;22.42;12.80;;;;;;;;;;5047497;27;95383;-75
2022/03/08 02:10:43;;;;;;;21.83;12.35;;;;;;;;;;5048456;27;96874;-75
2022/03/08 02:13:09;;;;;;;21.10;12.18;;;;;;;;;;5047727;27;96135;-75
2022/03/08 02:15:36;;;;;;;25.52;12.52;;;;;;;;;;5048524;27;95805;-75
2022/03/08 02:18:02;;;;;;;22.45;11.95;;;;;;;;;;5051136;27;96817;-75
2022/03/08 02:20:29;;;;;;;18.85;11.18;;;;;;;;;;5048554;27;95231;-74
2022/03/08 02:22:56;;;;;;;25.35;11.63;;;;;;;;;;5051628;27;96837;-75
2022/03/08 02:25:22;;;;;;;17.63;10.68;;;;;;;;;;5051437;27;96751;-74
2022/03/08 02:27:50;;;;;;;18.67;11.30;;;;;;;;;;5052042;27;95379;-75
2022/03/08 02:30:17;;;;;;;19.02;10.85;;;;;;;;;;5051011;27;96940;-75
2022/03/08 02:32:44;;;;;;;16.90;10.27;;;;;;;;;;5051910;27;97666;-75
2022/03/08 02:35:20;;;;;;;20.50;10.38;;;;;;;;;;5051328;27;95716;-74
2022/03/08 02:37:48;;;;;;;19.88;10.32;;;;;;;;;;5055143;27;96757;-74
2022/03/08 02:40:16;;;;;;;17.45;10.60;;;;;;;;;;5051636;27;96228;-74
2022/03/08 02:42:42;;;;;;;15.90;9.95;;;;;;;;;;5050833;27;96485;-74
2022/03/08 02:45:11;;;;;;;15.88;9.68;;;;;;;;;;5051409;27;98049;-74
2022/03/08 02:47:37;;;;;;;18.85;9.43;;;;;;;;;;5052217;27;96016;-74
2022/03/08 02:50:08;;;;;;;18.75;10.30;;;;;;;;;;5051789;27;96749;-75
2022/03/08 02:52:34;;;;;;;19.52;10.00;;;;;;;;;;5051063;27;97321;-74
2022/03/08 02:55:01;;;;;;;18.48;9.85;;;;;;;;;;5051113;27;95569;-75
2022/03/08 02:57:28;;;;;;;19.92;10.55;;;;;;;;;;5051168;27;95914;-75
2022/03/08 02:59:54;;;;;;;17.95;9.65;;;;;;;;;;5054748;27;97580;-75
2022/03/08 03:02:20;;;;;;;20.08;9.75;;;;;;;;;;5051623;27;96676;-74
2022/03/08 03:04:47;;;;;;;19.48;10.15;;;;;;;;;;5051426;27;97588;-74
2022/03/08 03:07:14;;;;;;;21.98;10.00;;;;;;;;;;5051308;27;95360;-75
2022/03/08 03:09:41;;;;;;;17.77;10.23;;;;;;;;;;5051965;27;96920;-75
2022/03/08 03:12:07;;;;;;;19.35;10.48;;;;;;;;;;5049937;27;98852;-75
2022/03/08 03:14:34;;;;;;;17.02;10.25;;;;;;;;;;5044611;27;96844;-75
2022/03/08 03:17:00;;;;;;;21.48;10.68;;;;;;;;;;5051510;27;96723;-75
2022/03/08 03:19:26;;;;;;;16.55;10.07;;;;;;;;;;5051067;27;97383;-74
2022/03/08 03:21:53;;;;;;;17.73;10.23;;;;;;;;;;5054370;27;96754;-75
2022/03/08 03:24:19;;;;;;;19.35;9.93;;;;;;;;;;5050298;27;98189;-74
2022/03/08 03:26:45;;;;;;;18.70;10.15;;;;;;;;;;5051795;27;95572;-75
2022/03/08 03:29:12;;;;;;;18.08;10.23;;;;;;;;;;5051140;27;97110;-75
2022/03/08 03:31:38;;;;;;;17.67;10.13;;;;;;;;;;5049513;27;96246;-75
2022/03/08 03:34:04;;;;;;;20.83;10.32;;;;;;;;;;5032729;27;95874;-74
2022/03/08 03:36:30;;;;;;;15.55;9.57;;;;;;;;;;5051185;27;96909;-74
2022/03/08 03:38:57;;;;;;;17.73;9.63;;;;;;;;;;5050844;27;96033;-73
2022/03/08 03:41:23;;;;;;;15.98;9.88;;;;;;;;;;5051117;27;95351;-73
2022/03/08 03:43:49;;;;;;;15.35;9.57;;;;;;;;;;5054256;27;96863;-75
2022/03/08 03:46:16;;;;;;;17.30;9.63;;;;;;;;;;5032533;27;95499;-74
2022/03/08 03:48:43;;;;;;;15.45;9.10;;;;;;;;;;5050795;27;96820;-73
2022/03/08 03:51:09;;;;;;;18.15;9.55;;;;;;;;;;5051302;27;96689;-74
2022/03/08 03:53:35;;;;;;;15.95;9.13;;;;;;;;;;5050245;27;95809;-77
2022/03/08 03:56:02;;;;;;;18.92;9.57;;;;;;;;;;5051039;27;96880;-76
2022/03/08 03:58:29;;;;;;;17.65;9.27;;;;;;;;;;5050524;27;96150;-76
2022/03/08 04:00:55;;;;;;;16.08;9.00;;;;;;;;;;5050485;27;95311;-76
2022/03/08 04:03:23;;;;;;;13.50;8.05;;;;;;;;;;5050656;27;96620;-75
2022/03/08 04:05:49;;;;;;;19.45;8.68;;;;;;;;;;5053708;27;97608;-76
2022/03/08 04:08:20;;;;;;;14.52;8.23;;;;;;;;;;5050242;27;96882;-75
2022/03/08 04:10:49;;;;;;;14.25;8.82;;;;;;;;;;5050891;27;97350;-75
2022/03/08 04:13:16;;;;;;;15.40;8.70;;;;;;;;;;5049874;27;95478;-75
2022/03/08 04:15:43;;;;;;;14.18;8.93;;;;;;;;;;5050346;27;96865;-74
2022/03/08 04:18:09;;;;;;;16.42;8.65;;;;;;;;;;5050230;27;97523;-75
2022/03/08 04:20:36;;;;;;;13.82;8.63;;;;;;;;;;5050220;27;95668;-74
2022/03/08 04:23:03;;;;;;;14.50;9.05;;;;;;;;;;5050048;27;96844;-75
2022/03/08 04:25:29;;;;;;;15.30;8.77;;;;;;;;;;5050339;27;97611;-74
2022/03/08 04:27:56;;;;;;;14.05;9.00;;;;;;;;;;5053330;27;95304;-75
2022/03/08 04:30:22;;;;;;;15.88;9.52;;;;;;;;;;5050289;27;97102;-75
2022/03/08 04:32:51;;;;;;;21.50;9.75;;;;;;;;;;5032073;27;95824;-75
2022/03/08 04:35:18;;;;;;;18.65;9.75;;;;;;;;;;5049333;27;97087;-75
2022/03/08 04:37:45;;;;;;;13.15;8.20;;;;;;;;;;5050261;27;97500;-75
2022/03/08 04:40:11;;;;;;;14.35;8.63;;;;;;;;;;5050673;27;95331;-76
2022/03/08 04:42:38;;;;;;;16.90;8.88;;;;;;;;;;5049232;27;96373;-75
2022/03/08 04:45:06;;;;;;;15.93;9.85;;;;;;;;;;5048412;27;97676;-75
2022/03/08 04:47:35;;;;;;;15.60;9.45;;;;;;;;;;5052887;27;95886;-74
2022/03/08 04:50:03;;;;;;;15.68;8.93;;;;;;;;;;5049358;27;96173;-74
2022/03/08 04:52:29;;;;;;;14.48;8.10;;;;;;;;;;5050110;27;95575;-74
2022/03/08 04:54:55;;;;;;;13.45;8.30;;;;;;;;;;5033494;27;97110;-75
2022/03/08 04:57:22;;;;;;;16.25;8.00;;;;;;;;;;5030872;27;97823;-74
2022/03/08 04:59:48;;;;;;;14.65;8.30;;;;;;;;;;5050049;27;95316;-74
2022/03/08 05:02:14;;;;;;;15.07;8.00;;;;;;;;;;5049939;27;96877;-75
2022/03/08 05:04:41;;;;;;;15.48;8.05;;;;;;;;;;5049116;27;97460;-75
2022/03/08 05:07:07;;;;;;;15.30;7.68;;;;;;;;;;5049332;27;95398;-75
2022/03/08 05:09:34;;;;;;;17.50;7.93;;;;;;;;;;5052628;27;95937;-76
2022/03/08 05:12:00;;;;;;;13.55;8.02;;;;;;;;;;5049104;27;95429;-75
2022/03/08 05:14:26;;;;;;;14.43;8.20;;;;;;;;;;5049124;27;95940;-75
2022/03/08 05:16:53;;;;;;;12.48;7.32;;;;;;;;;;5048308;27;97254;-75
2022/03/08 05:19:19;;;;;;;13.50;8.02;;;;;;;;;;5049187;27;95834;-77
2022/03/08 05:21:45;;;;;;;12.90;7.40;;;;;;;;;;5049210;27;97324;-76
2022/03/08 05:24:12;;;;;;;12.70;7.35;;;;;;;;;;5048730;27;97331;-75
2022/03/08 05:26:38;;;;;;;14.35;7.28;;;;;;;;;;5028010;27;95964;-76
2022/03/08 05:29:05;;;;;;;15.27;8.65;;;;;;;;;;5049253;27;96593;-77
2022/03/08 05:31:31;;;;;;;14.70;7.50;;;;;;;;;;5052008;27;97243;-75
2022/03/08 05:33:59;;;;;;;13.98;8.10;;;;;;;;;;5048736;27;95659;-76
2022/03/08 05:36:26;;;;;;;15.23;7.65;;;;;;;;;;5047441;27;97471;-75
2022/03/08 05:38:52;;;;;;;12.13;7.30;;;;;;;;;;5048193;27;95312;-76
2022/03/08 05:41:18;;;;;;;13.23;7.70;;;;;;;;;;5049199;27;96930;-76
2022/03/08 05:43:45;;;;;;;12.13;7.47;;;;;;;;;;5048983;27;97461;-76
2022/03/08 05:46:15;;;;;;;13.23;7.53;;;;;;;;;;5045348;27;95628;-75
2022/03/08 05:48:41;;;;;;;13.15;7.07;;;;;;;;;;5047734;27;96787;-76
2022/03/08 05:51:08;;;;;;;12.55;7.68;;;;;;;;;;5030975;27;97516;-77
2022/03/08 05:53:34;;;;;;;15.27;7.57;;;;;;;;;;5051529;27;95664;-77
2022/03/08 05:56:01;;;;;;;13.88;8.20;;;;;;;;;;5048798;27;97341;-77
2022/03/08 05:58:31;;;;;;;12.23;7.30;;;;;;;;;;5048925;27;95315;-77
2022/03/08 06:00:57;;;;;;;13.02;7.95;;;;;;;;;;5048526;27;96859;-77
2022/03/08 06:03:23;;;;;;;12.93;6.97;;;;;;;;;;5048878;27;97640;-77
2022/03/08 06:05:50;;;;;;;12.25;7.30;;;;;;;;;;5048909;27;95466;-76
2022/03/08 06:08:16;;;;;;;15.77;7.78;;;;;;;;;;5048688;27;96895;-75
2022/03/08 06:10:43;;;;;;;13.68;7.65;;;;;;;;;;5030779;27;97362;-77
2022/03/08 06:13:09;;;;;;;12.15;7.63;;;;;;;;;;5047865;27;95537;-76
2022/03/08 06:15:35;;;;;;;13.82;7.82;;;;;;;;;;5052013;27;97108;-77
2022/03/08 06:18:02;;;;;;;14.23;7.55;;;;;;;;;;5030916;27;95525;-76
2022/03/08 06:20:28;;;;;;;12.38;7.50;;;;;;;;;;5048616;27;99354;-76
2022/03/08 06:22:54;;;;;;;15.88;8.10;;;;;;;;;;5048439;27;97965;-76
2022/03/08 20:11:54;;;;;;;17.85;10.35;;;;;;;;;;5025234;28;95743;-75
2022/03/08 20:14:20;;;;;;;17.90;9.70;;;;;;;;;;5006617;28;97151;-74
2022/03/08 20:16:46;;;;;;;15.30;9.32;;;;;;;;;;5007374;28;95598;-72
2022/03/08 20:19:13;;;;;;;21.13;9.27;;;;;;;;;;5000371;28;96784;-74
2022/03/08 20:21:40;;;;;;;16.27;9.10;;;;;;;;;;5004885;28;96373;-73
2022/03/08 20:24:07;;;;;;;18.00;9.65;;;;;;;;;;5003373;28;96120;-73
2022/03/08 20:26:46;;;;;;;15.75;8.68;;;;;;;;;;5009896;28;96520;-72
2022/03/08 20:29:13;;;;;;;15.25;8.77;;;;;;;;;;5013809;28;97463;-73
2022/03/08 20:31:39;;;;;;;22.13;9.15;;;;;;;;;;5007643;28;95804;-73
2022/03/08 20:34:05;;;;;;;19.65;9.98;;;;;;;;;;5004112;28;97242;-73
2022/03/08 20:36:33;;;;;;;17.60;9.07;;;;;;;;;;5008161;28;95870;-73
2022/03/08 20:38:59;;;;;;;19.50;9.02;;;;;;;;;;5009178;28;96808;-75
2022/03/08 20:41:26;;;;;;;16.50;8.77;;;;;;;;;;5016690;28;97497;-72
2022/03/08 20:43:52;;;;;;;17.75;9.10;;;;;;;;;;5004422;28;95826;-73
2022/03/08 20:46:18;;;;;;;15.23;8.93;;;;;;;;;;5021260;28;96153;-75
2022/03/08 20:48:45;;;;;;;15.80;9.30;;;;;;;;;;5012050;28;97437;-73
2022/03/08 20:51:11;;;;;;;16.88;8.93;;;;;;;;;;5012321;28;95739;-76
2022/03/08 20:53:38;;;;;;;16.02;8.95;;;;;;;;;;5016229;28;97582;-73
2022/03/08 20:56:04;;;;;;;16.15;8.82;;;;;;;;;;5018316;28;96255;-75
2022/03/08 20:58:31;;;;;;;20.92;8.63;;;;;;;;;;5021775;28;95571;-73
2022/03/08 21:00:59;;;;;;;14.80;8.40;;;;;;;;;;4996801;28;97324;-74
2022/03/08 21:03:27;;;;;;;19.02;9.13;;;;;;;;;;5024212;28;95717;-74
2022/03/08 21:05:53;;;;;;;16.95;8.80;;;;;;;;;;5024897;28;96720;-73
2022/03/08 21:08:19;;;;;;;17.38;8.68;;;;;;;;;;5010472;28;97582;-74
2022/03/08 21:10:48;;;;;;;14.95;8.77;;;;;;;;;;5000794;28;96514;-76
2022/03/08 21:13:17;;;;;;;17.20;9.20;;;;;;;;;;5004098;28;97310;-75
2022/03/08 21:15:44;;;;;;;18.75;8.55;;;;;;;;;;5025635;28;98496;-75
2022/03/08 21:18:12;;;;;;;19.73;9.35;;;;;;;;;;5024374;28;95552;-75
2022/03/08 21:20:39;;;;;;;16.88;9.13;;;;;;;;;;5002335;28;96121;-73
2022/03/08 21:23:06;;;;;;;15.73;9.27;;;;;;;;;;5002132;28;95392;-74
2022/03/08 21:25:34;;;;;;;17.42;9.23;;;;;;;;;;4995500;28;99997;-76
2022/03/08 21:28:01;;;;;;;14.00;8.63;;;;;;;;;;4990426;28;97454;-75
2022/03/08 21:30:27;;;;;;;13.63;8.45;;;;;;;;;;4997392;28;96959;-75
2022/03/08 21:32:54;;;;;;;18.38;9.07;;;;;;;;;;4990844;28;96734;-75
2022/03/08 21:35:21;;;;;;;14.10;8.55;;;;;;;;;;4988682;28;97443;-74
2022/03/08 21:37:47;;;;;;;19.80;8.50;;;;;;;;;;4999155;28;95669;-74
2022/03/08 21:40:14;;;;;;;14.43;8.13;;;;;;;;;;4995213;28;98029;-74
2022/03/08 21:42:40;;;;;;;17.02;8.48;;;;;;;;;;4991506;28;95733;-73
2022/03/08 21:45:10;;;;;;;15.25;9.07;;;;;;;;;;4995426;28;96900;-74
2022/03/08 21:47:36;;;;;;;14.88;8.43;;;;;;;;;;4990254;28;97457;-76
2022/03/08 21:50:03;;;;;;;15.07;8.68;;;;;;;;;;4989367;28;95874;-75
2022/03/08 21:52:30;;;;;;;14.40;8.20;;;;;;;;;;5003998;28;97077;-74
2022/03/08 21:54:56;;;;;;;14.70;7.93;;;;;;;;;;5010638;28;97587;-76
2022/03/08 21:57:22;;;;;;;15.85;8.45;;;;;;;;;;5002154;28;95890;-76
2022/03/08 21:59:49;;;;;;;16.13;8.48;;;;;;;;;;4985095;28;97086;-76
2022/03/08 22:02:15;;;;;;;18.58;7.93;;;;;;;;;;4997550;28;97176;-75
2022/03/08 22:04:41;;;;;;;13.30;8.05;;;;;;;;;;4996705;28;96900;-76
2022/03/08 22:07:08;;;;;;;13.50;7.85;;;;;;;;;;4990330;28;96124;-74
2022/03/08 22:09:34;;;;;;;14.05;8.32;;;;;;;;;;4989084;28;96806;-74
2022/03/08 22:12:00;;;;;;;13.88;8.88;;;;;;;;;;5000124;28;97348;-75
2022/03/08 22:14:27;;;;;;;18.33;8.85;;;;;;;;;;4989957;28;97311;-74
2022/03/08 22:16:53;;;;;;;14.88;8.32;;;;;;;;;;4988939;28;95737;-75
2022/03/08 22:19:20;;;;;;;16.02;8.45;;;;;;;;;;4994243;28;96788;-75
2022/03/08 22:21:52;;;;;;;19.67;9.05;;;;;;;;;;5006836;28;95682;-76
2022/03/08 22:24:18;;;;;;;14.80;8.43;;;;;;;;;;4992540;28;97148;-74
2022/03/08 22:26:45;;;;;;;13.80;8.15;;;;;;;;;;5005250;28;97445;-75
2022/03/08 22:29:11;;;;;;;16.02;8.48;;;;;;;;;;4996858;28;95399;-75
2022/03/08 22:31:37;;;;;;;16.95;8.43;;;;;;;;;;4993296;28;96849;-76
2022/03/08 22:34:04;;;;;;;22.05;8.63;;;;;;;;;;5006583;28;97325;-76
2022/03/08 22:36:30;;;;;;;18.15;8.93;;;;;;;;;;5009411;28;95574;-73
2022/03/08 22:38:57;;;;;;;15.43;8.48;;;;;;;;;;4990863;28;97002;-76
2022/03/08 22:41:24;;;;;;;20.00;9.13;;;;;;;;;;4974283;28;97012;-75
2022/03/08 22:43:50;;;;;;;17.10;8.90;;;;;;;;;;4987262;28;97243;-75
2022/03/08 22:46:17;;;;;;;21.13;9.00;;;;;;;;;;4991437;28;97608;-76
2022/03/08 22:48:44;;;;;;;19.40;9.35;;;;;;;;;;5009448;28;95316;-77
2022/03/08 22:53:55;;;;;;;17.23;9.90;;;;;;;;;;4969660;28;97322;-76
2022/03/08 22:56:21;;;;;;;23.27;9.57;;;;;;;;;;4970106;28;95411;-76
2022/03/08 22:58:48;;;;;;;18.98;9.88;;;;;;;;;;4995921;28;97346;-76
2022/03/08 23:01:14;;;;;;;21.92;9.77;;;;;;;;;;4987408;28;97591;-75
2022/03/08 23:03:40;;;;;;;19.58;9.43;;;;;;;;;;5004670;28;95425;-77
2022/03/08 23:06:07;;;;;;;15.80;9.40;;;;;;;;;;4991915;28;97633;-74
2022/03/08 23:08:34;;;;;;;19.60;9.82;;;;;;;;;;4981748;28;95628;-74
2022/03/08 23:11:00;;;;;;;17.45;9.80;;;;;;;;;;4988922;28;96709;-76
2022/03/08 23:13:27;;;;;;;17.23;9.75;;;;;;;;;;4989035;28;97242;-76
2022/03/08 23:15:54;;;;;;;17.33;9.57;;;;;;;;;;4989596;28;95467;-75
2022/03/08 23:18:20;;;;;;;18.00;9.27;;;;;;;;;;4998486;28;96922;-74
2022/03/08 23:20:46;;;;;;;17.67;9.45;;;;;;;;;;5008665;28;96903;-76
2022/03/08 23:23:17;;;;;;;17.42;9.88;;;;;;;;;;5009053;28;95393;-75
2022/03/08 23:25:43;;;;;;;24.63;9.65;;;;;;;;;;5011331;28;97091;-76
2022/03/08 23:28:11;;;;;;;20.23;9.82;;;;;;;;;;4990285;28;96085;-75
2022/03/08 23:30:38;;;;;;;17.08;9.98;;;;;;;;;;4995689;28;96674;-76
2022/03/08 23:33:04;;;;;;;19.42;9.85;;;;;;;;;;4990296;28;97279;-76
2022/03/08 23:35:30;;;;;;;23.48;10.10;;;;;;;;;;4988159;28;95679;-76
2022/03/08 23:37:59;;;;;;;22.25;9.85;;;;;;;;;;4999527;28;96797;-76
2022/03/08 23:40:27;;;;;;;19.30;10.10;;;;;;;;;;5001728;28;97340;-75
2022/03/08 23:42:53;;;;;;;18.45;9.48;;;;;;;;;;4988362;28;95814;-75
2022/03/08 23:45:19;;;;;;;18.33;9.48;;;;;;;;;;4987857;28;96700;-76
2022/03/08 23:47:46;;;;;;;21.73;10.07;;;;;;;;;;4990461;28;97201;-75
2022/03/08 23:50:12;;;;;;;18.75;9.18;;;;;;;;;;5008145;28;96956;-76
2022/03/08 23:52:38;;;;;;;19.83;9.30;;;;;;;;;;5003096;28;97307;-76
2022/03/08 23:55:08;;;;;;;18.33;9.85;;;;;;;;;;4995142;28;95350;-74
2022/03/08 23:57:34;;;;;;;18.55;9.38;;;;;;;;;;4990952;28;96858;-73
